createdAt,value
2018-07-05T00:02:40.242Z,17.00
2018-07-05T00:05:26.427Z,16.80
2018-07-05T00:08:12.691Z,16.80
2018-07-05T00:10:59.015Z,16.80
2018-07-05T00:13:45.359Z,16.80
2018-07-05T00:16:31.545Z,16.80
2018-07-05T00:19:17.948Z,16.80
2018-07-05T00:22:04.371Z,16.70
2018-07-05T00:24:50.775Z,16.70
2018-07-05T00:27:36.969Z,16.70
2018-07-05T00:30:23.331Z,16.70
2018-07-05T00:33:09.986Z,16.70
2018-07-05T00:35:56.368Z,16.70
2018-07-05T00:38:42.735Z,16.70
2018-07-05T00:41:28.989Z,16.60
2018-07-05T00:44:15.212Z,16.60
2018-07-05T00:47:01.545Z,16.50
2018-07-05T00:49:47.886Z,16.50
2018-07-05T00:52:34.199Z,16.40
2018-07-05T00:55:20.604Z,16.40
2018-07-05T00:58:06.998Z,16.50
2018-07-05T01:00:53.404Z,16.50
2018-07-05T01:03:39.920Z,16.40
2018-07-05T01:06:26.126Z,16.40
2018-07-05T01:09:12.566Z,16.30
2018-07-05T01:14:39.484Z,16.20
2018-07-05T01:17:25.703Z,16.20
2018-07-05T01:20:12.116Z,16.20
2018-07-05T01:22:58.356Z,16.10
2018-07-05T01:25:44.758Z,16.10
2018-07-05T01:28:31.039Z,16.10
2018-07-05T01:31:17.346Z,16.10
2018-07-05T01:34:03.709Z,16.10
2018-07-05T01:36:50.255Z,16.10
2018-07-05T01:39:36.634Z,16.10
2018-07-05T01:42:23.184Z,16.10
2018-07-05T01:45:09.598Z,16.10
2018-07-05T01:47:55.839Z,16.10
2018-07-05T01:50:42.055Z,16.00
2018-07-05T01:53:28.442Z,16.00
2018-07-05T01:56:14.734Z,16.00
2018-07-05T01:59:01.451Z,16.00
2018-07-05T02:01:48.071Z,16.00
2018-07-05T02:04:34.216Z,16.00
2018-07-05T02:07:20.771Z,15.90
2018-07-05T02:10:07.301Z,15.90
2018-07-05T02:12:53.645Z,15.90
2018-07-05T02:15:40.486Z,15.90
2018-07-05T02:18:26.690Z,15.90
2018-07-05T02:21:13.039Z,15.90
2018-07-05T02:26:39.574Z,15.80
2018-07-05T02:29:25.768Z,15.90
2018-07-05T02:34:53.293Z,15.80
2018-07-05T02:37:44.725Z,15.90
2018-07-05T02:40:30.898Z,15.80
2018-07-05T02:43:17.307Z,15.80
2018-07-05T02:46:03.455Z,15.90
2018-07-05T02:48:49.870Z,15.90
2018-07-05T02:51:36.183Z,15.90
2018-07-05T02:54:22.447Z,15.90
2018-07-05T02:57:08.638Z,15.90
2018-07-05T02:59:55.574Z,16.00
2018-07-05T03:02:41.720Z,15.90
2018-07-05T03:05:28.067Z,15.90
2018-07-05T03:08:14.491Z,15.90
2018-07-05T03:11:01.852Z,15.90
2018-07-05T03:13:48.101Z,15.90
2018-07-05T03:16:34.323Z,15.90
2018-07-05T03:19:21.522Z,15.90
2018-07-05T03:22:07.715Z,15.80
2018-07-05T03:24:54.206Z,15.80
2018-07-05T03:27:40.372Z,15.80
2018-07-05T03:30:26.762Z,15.80
2018-07-05T03:33:13.134Z,15.90
2018-07-05T03:35:59.483Z,15.80
2018-07-05T03:38:45.878Z,15.90
2018-07-05T03:41:32.277Z,15.90
2018-07-05T03:44:18.672Z,16.00
2018-07-05T03:47:05.095Z,16.00
2018-07-05T03:49:51.447Z,16.00
2018-07-05T03:52:37.730Z,16.10
2018-07-05T03:55:24.268Z,16.20
2018-07-05T03:58:10.640Z,16.30
2018-07-05T04:00:57.143Z,16.50
2018-07-05T04:06:23.621Z,16.90
2018-07-05T04:09:09.879Z,17.10
2018-07-05T04:11:56.211Z,17.20
2018-07-05T04:14:42.391Z,17.40
2018-07-05T04:17:29.481Z,17.60
2018-07-05T04:20:15.816Z,17.70
2018-07-05T04:23:02.116Z,17.80
2018-07-05T04:25:48.436Z,18.00
2018-07-05T04:28:34.632Z,18.10
2018-07-05T04:31:21.006Z,18.10
2018-07-05T04:34:07.386Z,18.20
2018-07-05T04:36:53.740Z,18.20
2018-07-05T04:39:40.063Z,18.30
2018-07-05T04:42:26.531Z,18.40
2018-07-05T04:45:12.728Z,18.40
2018-07-05T04:47:59.272Z,18.40
2018-07-05T04:50:45.602Z,18.50
2018-07-05T04:53:32.033Z,18.40
2018-07-05T04:56:18.491Z,18.40
2018-07-05T04:59:04.887Z,18.40
2018-07-05T05:01:51.187Z,18.40
2018-07-05T05:04:37.566Z,18.30
2018-07-05T05:07:23.999Z,18.30
2018-07-05T05:12:50.665Z,18.40
2018-07-05T05:18:17.207Z,18.40
2018-07-05T05:21:03.363Z,18.40
2018-07-05T05:23:49.771Z,18.40
2018-07-05T05:26:36.168Z,18.30
2018-07-05T05:29:22.508Z,18.30
2018-07-05T05:32:08.771Z,18.30
2018-07-05T05:34:55.140Z,18.30
2018-07-05T05:37:41.846Z,18.30
2018-07-05T05:40:28.178Z,18.30
2018-07-05T05:43:14.628Z,18.30
2018-07-05T05:46:00.945Z,18.30
2018-07-05T05:48:47.359Z,18.40
2018-07-05T05:51:33.603Z,18.50
2018-07-05T05:54:20.056Z,18.70
2018-07-05T05:57:06.318Z,18.80
2018-07-05T05:59:52.743Z,18.90
2018-07-05T06:02:39.133Z,19.20
2018-07-05T06:05:25.414Z,19.30
2018-07-05T06:08:11.897Z,19.40
2018-07-05T06:10:58.206Z,19.50
2018-07-05T06:13:44.534Z,19.70
2018-07-05T06:16:30.983Z,19.80
2018-07-05T06:19:17.404Z,19.90
2018-07-05T06:22:03.649Z,20.10
2018-07-05T06:24:49.898Z,20.60
2018-07-05T06:27:36.159Z,20.90
2018-07-05T06:30:22.439Z,21.40
2018-07-05T06:33:08.849Z,21.80
2018-07-05T06:35:55.059Z,22.60
2018-07-05T06:38:41.184Z,23.40
2018-07-05T06:41:27.555Z,23.80
2018-07-05T06:46:54.303Z,24.20
2018-07-05T06:49:40.637Z,23.80
2018-07-05T06:52:26.903Z,23.70
2018-07-05T06:55:13.248Z,23.30
2018-07-05T06:57:59.558Z,22.80
2018-07-05T07:00:45.908Z,22.70
2018-07-05T07:03:32.266Z,22.80
2018-07-05T07:06:11.994Z,22.80
2018-07-05T07:08:58.039Z,23.00
2018-07-05T07:11:44.152Z,22.80
2018-07-05T07:14:30.576Z,22.80
2018-07-05T07:17:16.790Z,22.60
2018-07-05T07:20:03.078Z,22.80
2018-07-05T07:22:49.501Z,23.40
2018-07-05T07:25:35.790Z,23.70
2018-07-05T07:28:22.163Z,23.70
2018-07-05T07:31:08.426Z,23.40
2018-07-05T07:33:54.699Z,23.20
2018-07-05T07:36:40.940Z,23.00
2018-07-05T07:41:50.047Z,22.70
2018-07-05T07:44:19.421Z,22.40
2018-07-05T07:46:47.952Z,22.40
2018-07-05T07:49:16.251Z,22.30
2018-07-05T07:51:43.972Z,22.30
2018-07-05T07:54:11.683Z,22.20
2018-07-05T07:56:39.443Z,22.10
2018-07-05T07:59:07.149Z,22.00
2018-07-05T08:01:34.865Z,21.80
2018-07-05T08:04:02.572Z,21.80
2018-07-05T08:06:30.310Z,21.70
2018-07-05T08:08:58.040Z,21.50
2018-07-05T08:11:25.743Z,21.50
2018-07-05T08:13:53.450Z,21.40
2018-07-05T08:16:21.195Z,21.30
2018-07-05T08:18:48.875Z,21.30
2018-07-05T08:21:16.658Z,21.20
2018-07-05T08:23:44.365Z,21.10
2018-07-05T08:26:12.111Z,21.20
2018-07-05T08:28:39.851Z,21.00
2018-07-05T08:33:35.547Z,21.00
2018-07-05T08:36:03.254Z,21.10
2018-07-05T08:38:30.971Z,20.50
2018-07-05T08:40:58.750Z,20.90
2018-07-05T08:43:26.467Z,21.00
2018-07-05T08:45:54.171Z,21.00
2018-07-05T08:48:21.911Z,21.00
2018-07-05T08:50:49.996Z,20.90
2018-07-05T08:53:17.763Z,21.00
2018-07-05T08:55:45.458Z,21.00
2018-07-05T08:58:13.427Z,21.10
2018-07-05T09:00:41.120Z,21.10
2018-07-05T09:03:08.863Z,21.30
2018-07-05T09:05:36.580Z,21.30
2018-07-05T09:10:32.279Z,21.60
2018-07-05T09:13:00.035Z,21.70
2018-07-05T09:15:27.753Z,21.60
2018-07-05T09:17:55.777Z,21.60
2018-07-05T09:20:23.228Z,21.60
2018-07-05T09:22:50.974Z,21.80
2018-07-05T09:25:18.683Z,21.80
2018-07-05T09:27:46.410Z,21.90
2018-07-05T09:30:14.274Z,22.00
2018-07-05T09:32:41.939Z,22.00
2018-07-05T09:35:09.656Z,22.00
2018-07-05T09:37:37.458Z,22.00
2018-07-05T09:40:05.100Z,22.00
2018-07-05T09:42:32.811Z,22.10
2018-07-05T09:45:00.534Z,22.20
2018-07-05T09:47:28.218Z,22.30
2018-07-05T09:49:55.927Z,22.50
2018-07-05T09:52:23.673Z,22.70
2018-07-05T09:54:51.353Z,22.90
2018-07-05T09:57:19.082Z,23.10
2018-07-05T10:02:14.726Z,23.10
2018-07-05T10:04:42.463Z,22.90
2018-07-05T10:07:10.140Z,22.80
2018-07-05T10:09:37.899Z,22.60
2018-07-05T10:12:05.609Z,22.50
2018-07-05T10:14:33.327Z,22.30
2018-07-05T10:17:01.082Z,22.30
2018-07-05T10:19:28.828Z,22.30
2018-07-05T10:21:56.510Z,22.30
2018-07-05T10:24:24.244Z,22.30
2018-07-05T10:26:52.162Z,22.20
2018-07-05T10:29:38.385Z,22.20
2018-07-05T10:32:25.790Z,22.20
2018-07-05T10:34:54.283Z,22.10
2018-07-05T10:37:22.842Z,22.30
2018-07-05T10:40:09.271Z,22.30
2018-07-05T10:42:56.119Z,22.50
2018-07-05T10:45:48.378Z,22.50
2018-07-05T10:48:35.238Z,22.50
2018-07-05T10:51:22.335Z,22.30
2018-07-05T10:54:08.668Z,22.10
2018-07-05T10:56:55.096Z,22.00
2018-07-05T10:59:43.258Z,21.90
2018-07-05T11:02:33.980Z,21.70
2018-07-05T11:05:23.110Z,21.40
2018-07-05T11:08:09.521Z,21.20
2018-07-05T11:10:55.950Z,20.90
2018-07-05T11:13:42.681Z,20.70
2018-07-05T11:16:34.867Z,20.60
2018-07-05T11:19:21.115Z,20.60
2018-07-05T11:22:10.637Z,20.60
2018-07-05T11:24:57.123Z,20.70
2018-07-05T11:27:45.230Z,20.70
2018-07-05T11:30:34.241Z,20.80
2018-07-05T11:36:06.223Z,20.90
2018-07-05T11:38:57.495Z,21.00
2018-07-05T11:41:44.805Z,21.10
2018-07-05T11:44:33.298Z,21.20
2018-07-05T11:47:19.547Z,21.30
2018-07-05T11:50:06.207Z,21.40
2018-07-05T11:52:52.639Z,21.50
2018-07-05T11:58:20.503Z,21.50
2018-07-05T12:01:07.251Z,21.40
2018-07-05T12:03:58.739Z,21.40
2018-07-05T12:06:45.623Z,21.50
2018-07-05T12:09:33.458Z,21.50
2018-07-05T12:12:19.822Z,21.50
2018-07-05T12:15:10.609Z,21.30
2018-07-05T12:18:00.200Z,21.30
2018-07-05T12:20:47.592Z,21.40
2018-07-05T12:23:34.306Z,21.40
2018-07-05T12:26:23.471Z,21.40
2018-07-05T12:29:11.779Z,21.70
2018-07-05T12:32:06.325Z,21.90
2018-07-05T12:34:55.339Z,22.00
2018-07-05T12:37:42.771Z,21.90
2018-07-05T12:40:33.680Z,22.00
2018-07-05T12:43:19.903Z,22.00
2018-07-05T12:46:05.942Z,22.10
2018-07-05T12:48:52.369Z,22.10
2018-07-05T12:51:38.591Z,22.20
2018-07-05T12:54:25.018Z,22.50
2018-07-05T12:57:11.237Z,22.60
2018-07-05T12:59:57.426Z,22.80
2018-07-05T13:02:43.687Z,22.80
2018-07-05T13:05:29.774Z,22.60
2018-07-05T13:08:16.088Z,22.40
2018-07-05T13:11:02.449Z,22.00
2018-07-05T13:13:48.661Z,21.60
2018-07-05T13:16:34.942Z,21.30
2018-07-05T13:19:21.367Z,21.10
2018-07-05T13:22:07.729Z,20.90
2018-07-05T13:24:54.091Z,20.80
2018-07-05T13:27:40.944Z,20.70
2018-07-05T13:30:27.325Z,20.60
2018-07-05T13:33:13.634Z,20.40
2018-07-05T13:35:59.979Z,20.40
2018-07-05T13:38:46.431Z,20.40
2018-07-05T13:41:32.877Z,20.40
2018-07-05T13:44:18.911Z,20.40
2018-07-05T13:47:05.285Z,20.30
2018-07-05T13:49:51.518Z,20.30
2018-07-05T13:52:37.836Z,20.40
2018-07-05T13:55:24.274Z,20.50
2018-07-05T13:58:10.626Z,20.40
2018-07-05T14:00:57.181Z,20.50
2018-07-05T14:03:43.508Z,20.60
2018-07-05T14:06:29.791Z,20.50
2018-07-05T14:09:16.194Z,20.40
2018-07-05T14:12:02.534Z,20.50
2018-07-05T14:14:48.739Z,20.50
2018-07-05T14:17:35.591Z,20.50
2018-07-05T14:20:21.764Z,20.40
2018-07-05T14:23:08.044Z,20.20
2018-07-05T14:25:54.551Z,20.20
2018-07-05T14:28:40.950Z,20.00
2018-07-05T14:31:27.266Z,20.10
2018-07-05T14:34:13.591Z,20.30
2018-07-05T14:36:59.924Z,20.30
2018-07-05T14:42:26.781Z,20.00
2018-07-05T14:45:13.606Z,20.00
2018-07-05T14:48:00.090Z,20.00
2018-07-05T14:50:46.138Z,20.10
2018-07-05T14:53:32.483Z,20.10
2018-07-05T14:56:18.833Z,20.30
2018-07-05T15:01:45.502Z,20.20
2018-07-05T15:04:31.876Z,20.20
2018-07-05T15:07:18.194Z,20.10
2018-07-05T15:10:04.504Z,19.90
2018-07-05T15:12:50.834Z,19.70
2018-07-05T15:15:37.275Z,19.50
2018-07-05T15:18:23.551Z,19.40
2018-07-05T15:21:10.964Z,19.40
2018-07-05T15:23:57.355Z,19.40
2018-07-05T15:29:24.050Z,19.30
2018-07-05T15:32:10.412Z,19.30
2018-07-05T15:34:56.770Z,19.30
2018-07-05T15:37:43.098Z,19.30
2018-07-05T15:40:29.480Z,19.20
2018-07-05T15:43:15.801Z,19.30
2018-07-05T15:46:02.121Z,19.20
2018-07-05T15:48:48.588Z,19.10
2018-07-05T15:51:34.964Z,19.20
2018-07-05T15:54:21.311Z,19.10
2018-07-05T15:57:07.807Z,19.20
2018-07-05T15:59:54.229Z,19.20
2018-07-05T16:02:42.264Z,19.20
2018-07-05T16:05:28.680Z,19.20
2018-07-05T16:08:15.056Z,19.20
2018-07-05T16:11:02.527Z,19.20
2018-07-05T16:13:52.279Z,19.20
2018-07-05T16:16:39.908Z,19.20
2018-07-05T16:19:28.349Z,19.20
2018-07-05T16:22:16.100Z,19.20
2018-07-05T16:25:05.811Z,19.30
2018-07-05T16:27:57.780Z,19.40
2018-07-05T16:30:58.733Z,19.40
2018-07-05T16:33:57.651Z,19.50
2018-07-05T16:36:52.083Z,19.50
2018-07-05T16:39:47.322Z,19.40
2018-07-05T16:42:37.241Z,19.50
2018-07-05T16:45:38.135Z,19.60
2018-07-05T16:48:31.462Z,19.60
2018-07-05T16:51:23.461Z,19.60
2018-07-05T16:54:16.306Z,19.60
2018-07-05T16:57:04.825Z,19.50
2018-07-05T16:59:57.320Z,19.50
2018-07-05T17:02:48.946Z,19.50
2018-07-05T17:05:53.764Z,19.50
2018-07-05T17:08:53.289Z,19.40
2018-07-05T17:11:56.965Z,19.40
2018-07-05T17:18:12.478Z,19.30
2018-07-05T17:20:59.437Z,19.30
2018-07-05T17:23:46.345Z,19.30
2018-07-05T17:26:32.973Z,19.40
2018-07-05T17:29:19.740Z,19.50
2018-07-05T17:32:06.455Z,19.50
2018-07-05T17:34:52.931Z,19.40
2018-07-05T17:37:39.960Z,19.20
2018-07-05T17:40:26.693Z,19.20
2018-07-05T17:43:13.433Z,19.10
2018-07-05T17:46:00.098Z,19.00
2018-07-05T17:48:47.035Z,18.90
2018-07-05T17:51:33.806Z,18.90
2018-07-05T17:54:21.807Z,18.90
2018-07-05T17:57:08.754Z,18.80
2018-07-05T17:59:55.392Z,18.80
2018-07-05T18:02:41.755Z,18.80
2018-07-05T18:05:28.232Z,18.70
2018-07-05T18:08:14.940Z,18.70
2018-07-05T18:11:01.651Z,18.70
2018-07-05T18:13:48.077Z,18.60
2018-07-05T18:16:35.295Z,18.60
2018-07-05T18:19:22.241Z,18.60
2018-07-05T18:22:09.180Z,18.60
2018-07-05T18:24:56.408Z,18.50
2018-07-05T18:27:43.419Z,18.50
2018-07-05T18:30:30.212Z,18.40
2018-07-05T18:33:16.976Z,18.40
2018-07-05T18:36:03.479Z,18.30
2018-07-05T18:38:52.657Z,18.30
2018-07-05T18:41:39.315Z,18.30
2018-07-05T18:44:26.001Z,18.20
2018-07-05T18:47:12.738Z,18.20
2018-07-05T18:49:59.449Z,18.20
2018-07-05T18:52:46.166Z,18.10
2018-07-05T18:55:32.803Z,18.10
2018-07-05T18:58:20.072Z,18.00
2018-07-05T19:01:08.297Z,18.00
2018-07-05T19:03:55.409Z,18.00
2018-07-05T19:06:43.007Z,18.00
2018-07-05T19:09:34.400Z,17.90
2018-07-05T19:12:22.577Z,17.90
2018-07-05T19:15:11.443Z,17.80
2018-07-05T19:17:58.561Z,17.80
2018-07-05T19:20:46.495Z,17.70
2018-07-05T19:23:33.014Z,17.70
2018-07-05T19:26:19.945Z,17.60
2018-07-05T19:29:07.091Z,17.60
2018-07-05T19:31:54.332Z,17.50
2018-07-05T19:34:42.577Z,17.50
2018-07-05T19:37:30.406Z,17.40
2018-07-05T19:40:17.556Z,17.40
2018-07-05T19:43:04.368Z,17.40
2018-07-05T19:45:51.094Z,17.40
2018-07-05T19:48:38.132Z,17.40
2018-07-05T19:51:24.745Z,17.40
2018-07-05T19:54:12.397Z,17.30
2018-07-05T19:56:59.223Z,17.30
2018-07-05T19:59:46.340Z,17.30
2018-07-05T20:02:33.067Z,17.30
2018-07-05T20:05:20.293Z,17.20
2018-07-05T20:08:08.475Z,17.20
2018-07-05T20:11:01.928Z,17.30
2018-07-05T20:13:48.786Z,17.30
2018-07-05T20:16:35.047Z,17.30
2018-07-05T20:19:21.209Z,17.30
2018-07-05T20:22:11.550Z,17.30
2018-07-05T20:24:58.366Z,17.30
2018-07-05T20:27:44.588Z,17.30
2018-07-05T20:30:31.019Z,17.30
2018-07-05T20:33:17.152Z,17.30
2018-07-05T20:36:03.253Z,17.30
2018-07-05T20:38:49.394Z,17.30
2018-07-05T20:41:35.810Z,17.30
2018-07-05T20:47:02.238Z,17.20
2018-07-05T20:49:48.447Z,17.20
2018-07-05T20:55:14.910Z,17.20
2018-07-05T20:58:01.310Z,17.20
2018-07-05T21:00:47.434Z,17.20
2018-07-05T21:03:33.635Z,17.20
2018-07-05T21:06:20.111Z,17.20
2018-07-05T21:09:06.590Z,17.20
2018-07-05T21:11:53.772Z,17.20
2018-07-05T21:14:40.053Z,17.20
2018-07-05T21:17:26.484Z,17.20
2018-07-05T21:20:12.611Z,17.20
2018-07-05T21:22:59.037Z,17.20
2018-07-05T21:25:45.337Z,17.20
2018-07-05T21:28:31.521Z,17.20
2018-07-05T21:31:18.634Z,17.20
2018-07-05T21:34:04.895Z,17.20
2018-07-05T21:36:51.114Z,17.20
2018-07-05T21:39:39.124Z,17.20
2018-07-05T21:42:25.716Z,17.20
2018-07-05T21:45:12.071Z,17.20
2018-07-05T21:47:58.200Z,17.10
2018-07-05T21:50:45.238Z,17.10
2018-07-05T21:53:31.477Z,17.10
2018-07-05T21:56:17.885Z,17.20
2018-07-05T22:01:44.606Z,17.10
2018-07-05T22:04:31.147Z,17.20
2018-07-05T22:07:17.547Z,17.20
2018-07-05T22:10:03.907Z,17.20
2018-07-05T22:15:30.366Z,17.10
2018-07-05T22:18:22.011Z,17.00
2018-07-05T22:21:09.578Z,17.00
2018-07-05T22:24:01.255Z,17.00
2018-07-05T22:26:48.347Z,17.00
2018-07-05T22:29:39.958Z,17.00
2018-07-05T22:32:26.104Z,16.90
2018-07-05T22:35:13.481Z,16.90
2018-07-05T22:37:59.764Z,17.00
2018-07-05T22:40:45.979Z,17.00
2018-07-05T22:43:32.323Z,17.00
2018-07-05T22:46:18.764Z,17.00
2018-07-05T22:49:05.019Z,17.00
2018-07-05T22:51:51.451Z,17.00
2018-07-05T22:54:37.798Z,17.00
2018-07-05T22:57:24.050Z,17.00
2018-07-05T23:00:10.497Z,16.90
2018-07-05T23:05:36.918Z,17.00
2018-07-05T23:08:23.268Z,17.00
2018-07-05T23:11:09.750Z,17.00
2018-07-05T23:13:56.211Z,17.00
2018-07-05T23:16:42.687Z,17.00
2018-07-05T23:19:29.007Z,17.00
2018-07-05T23:22:15.478Z,17.00
2018-07-05T23:25:01.751Z,17.10
2018-07-05T23:30:28.264Z,17.10
2018-07-05T23:33:14.611Z,17.10
2018-07-05T23:36:01.055Z,17.10
2018-07-05T23:38:47.368Z,17.10
2018-07-05T23:41:33.662Z,17.10
2018-07-05T23:44:20.067Z,17.10
2018-07-05T23:47:06.579Z,17.10
2018-07-05T23:49:52.964Z,17.10
2018-07-05T23:52:39.343Z,17.10
2018-07-05T23:55:25.629Z,17.10
2018-07-05T23:58:12.085Z,17.10
